Time;durP1;ratioP1;P1;durP2;ratioP2;P2;SDS_P1;SDS_P2;PMS_P1;PMS_P2;Temp;Humidity;BMP_temperature;BMP_pressure;BME280_temperature;BME280_humidity;BME280_pressure;Samples;Min_cycle;Max_cycle;Signal;HPM_P1;HPM_P2
2022/11/27 00:01:49;;;;;;;64.20;30.00;;;;;;;1.42;78.41;101723.19;101333;1281;99528;-64
2022/11/27 00:04:20;;;;;;;59.80;30.20;;;;;;;1.42;78.48;101724.59;101337;1282;107599;-65
2022/11/27 00:06:51;;;;;;;63.50;30.50;;;;;;;1.44;78.58;101719.59;101122;1300;139613;-66
2022/11/27 00:09:21;;;;;;;68.30;31.00;;;;;;;1.45;78.46;101718.02;101290;1286;95559;-64
2022/11/27 00:11:52;;;;;;;71.20;32.80;;;;;;;1.44;78.49;101721.31;101224;1282;138724;-67
2022/11/27 00:14:23;;;;;;;70.30;33.10;;;;;;;1.46;78.67;101719.83;101308;1298;99213;-63
2022/11/27 00:16:53;;;;;;;67.00;31.10;;;;;;;1.49;78.42;101719.57;101031;1278;108147;-63
2022/11/27 00:19:24;;;;;;;68.50;33.20;;;;;;;1.47;78.61;101720.73;101019;1277;140346;-65
2022/11/27 00:21:55;;;;;;;64.70;31.00;;;;;;;1.47;78.98;101721.77;101286;1298;94844;-64
2022/11/27 00:24:26;;;;;;;62.60;29.90;;;;;;;1.47;78.50;101725.81;101168;1305;140012;-64
2022/11/27 00:26:56;;;;;;;65.40;32.20;;;;;;;1.46;78.81;101719.10;101257;1278;99205;-64
2022/11/27 00:29:29;;;;;;;62.80;31.20;;;;;;;1.45;78.74;101724.34;101095;1277;139860;-65
2022/11/27 00:31:59;;;;;;;63.30;31.60;;;;;;;1.45;78.90;101726.25;101348;1298;95837;-65
2022/11/27 00:34:30;;;;;;;67.70;31.00;;;;;;;1.44;78.94;101726.08;101270;1278;94298;-65
2022/11/27 00:37:01;;;;;;;65.10;31.40;;;;;;;1.42;78.66;101726.17;101207;1284;139940;-65
2022/11/27 00:39:31;;;;;;;66.70;33.20;;;;;;;1.41;78.85;101723.15;101314;1282;98504;-65
2022/11/27 00:42:02;;;;;;;63.40;30.90;;;;;;;1.43;78.88;101723.91;101140;1298;139473;-64
2022/11/27 00:44:33;;;;;;;62.90;31.40;;;;;;;1.44;78.98;101727.30;101256;1283;95219;-65
2022/11/27 00:47:04;;;;;;;60.30;31.40;;;;;;;1.46;78.90;101720.16;101170;1278;94811;-66
2022/11/27 00:49:34;;;;;;;62.20;30.00;;;;;;;1.45;78.85;101718.36;101246;1281;139573;-65
2022/11/27 00:52:06;;;;;;;70.20;32.60;;;;;;;1.42;78.84;101718.30;101246;1282;98521;-63
2022/11/27 00:54:37;;;;;;;64.70;31.20;;;;;;;1.44;78.81;101713.29;101155;1284;140303;-65
2022/11/27 00:57:08;;;;;;;68.10;33.50;;;;;;;1.47;79.01;101713.04;101252;1298;94418;-65
2022/11/27 00:59:39;;;;;;;68.60;32.80;;;;;;;1.48;78.90;101712.54;101187;1285;140542;-65
2022/11/27 01:02:09;;;;;;;66.20;33.20;;;;;;;1.49;78.90;101712.90;101266;1299;107709;-64
2022/11/27 01:04:40;;;;;;;72.20;34.00;;;;;;;1.48;78.86;101710.61;101264;1290;98740;-66
2022/11/27 01:07:12;;;;;;;66.20;32.20;;;;;;;1.44;78.88;101711.89;101173;1285;139777;-65
2022/11/27 01:09:43;;;;;;;65.40;32.20;;;;;;;1.42;79.03;101713.92;101312;1278;94668;-64
2022/11/27 01:12:13;;;;;;;68.00;33.30;;;;;;;1.41;78.87;101715.45;101279;1282;140061;-65
2022/11/27 01:14:44;;;;;;;64.70;32.30;;;;;;;1.40;79.06;101719.26;101295;1299;108250;-65
2022/11/27 01:17:15;;;;;;;63.60;32.70;;;;;;;1.41;78.82;101714.73;101272;1298;97595;-64
2022/11/27 01:19:45;;;;;;;65.30;32.80;;;;;;;1.40;78.89;101718.05;101243;1278;108604;-64
2022/11/27 01:22:16;;;;;;;64.20;32.80;;;;;;;1.43;79.24;101715.85;101272;1281;94754;-64
2022/11/27 01:24:47;;;;;;;62.20;32.20;;;;;;;1.46;78.87;101720.17;101104;1284;140345;-65
2022/11/27 01:27:18;;;;;;;65.40;33.80;;;;;;;1.45;78.73;101721.54;101268;1285;107687;-65
2022/11/27 01:29:48;;;;;;;66.10;33.70;;;;;;;1.47;78.83;101724.91;101114;1286;141186;-65
2022/11/27 01:32:19;;;;;;;64.50;32.80;;;;;;;1.50;78.99;101725.38;101288;1282;108806;-66
2022/11/27 01:34:50;;;;;;;62.00;32.40;;;;;;;1.53;78.89;101729.84;101360;1278;95910;-65
2022/11/27 01:37:23;;;;;;;63.80;32.50;;;;;;;1.53;78.67;101727.21;101217;1285;139560;-65
2022/11/27 01:39:54;;;;;;;63.30;32.80;;;;;;;1.58;78.66;101727.00;101236;1281;107711;-66
2022/11/27 01:42:25;;;;;;;65.40;34.30;;;;;;;1.60;78.37;101730.94;101162;1298;139715;-64
2022/11/27 01:44:56;;;;;;;65.50;33.70;;;;;;;1.58;78.30;101730.16;101250;1285;108201;-65
2022/11/27 01:47:42;;;;;;;64.10;33.10;;;;;;;1.54;78.14;101732.13;101134;1283;139227;-64
2022/11/27 01:50:19;;;;;;;64.70;34.20;;;;;;;1.48;78.19;101727.76;101288;1290;94739;-65
2022/11/27 01:52:54;;;;;;;60.90;33.10;;;;;;;1.42;78.40;101728.09;101311;1289;107560;-64
2022/11/27 01:55:32;;;;;;;66.30;34.70;;;;;;;1.43;78.59;101733.38;101202;1306;139991;-64
2022/11/27 01:58:08;;;;;;;60.90;32.50;;;;;;;1.44;78.46;101730.25;101280;1285;108295;-64
2022/11/27 02:00:40;;;;;;;61.00;32.80;;;;;;;1.44;78.45;101725.51;101207;1285;140752;-64
2022/11/27 02:03:11;;;;;;;61.20;33.40;;;;;;;1.44;78.36;101731.48;101340;1294;94632;-64
2022/11/27 02:05:42;;;;;;;64.00;33.30;;;;;;;1.45;78.41;101727.49;101238;1284;138971;-63
2022/11/27 02:08:16;;;;;;;71.00;35.50;;;;;;;1.39;78.36;101725.55;101220;1278;98664;-62
2022/11/27 02:10:52;;;;;;;66.60;34.30;;;;;;;1.35;78.63;101728.55;101340;1284;107277;-63
2022/11/27 02:13:30;;;;;;;66.00;34.70;;;;;;;1.38;78.61;101728.66;101180;1281;141953;-63
2022/11/27 02:16:09;;;;;;;67.80;35.10;;;;;;;1.40;78.92;101730.45;101211;1283;94415;-64
2022/11/27 02:18:54;;;;;;;76.10;38.30;;;;;;;1.38;78.68;101732.69;101174;1285;140134;-64
2022/11/27 02:21:32;;;;;;;74.40;38.70;;;;;;;1.34;79.10;101739.38;101267;1282;98940;-64
2022/11/27 02:24:47;;;;;;;75.20;38.80;;;;;;;1.41;79.00;101741.02;101150;1298;140118;-64
2022/11/27 02:27:33;;;;;;;75.30;38.60;;;;;;;1.46;79.06;101750.62;101140;1299;94437;-64
2022/11/27 02:30:08;;;;;;;78.30;38.70;;;;;;;1.52;78.93;101748.18;101244;1284;140349;-65
2022/11/27 02:32:43;;;;;;;76.40;38.70;;;;;;;1.51;78.67;101752.17;101412;1282;107285;-65
2022/11/27 02:35:22;;;;;;;76.40;38.80;;;;;;;1.49;78.45;101751.23;101423;1282;97946;-64
2022/11/27 02:37:58;;;;;;;78.90;40.30;;;;;;;1.46;78.62;101747.30;101408;1282;108123;-65
2022/11/27 02:40:37;;;;;;;84.30;41.10;;;;;;;1.49;78.76;101749.65;101330;1281;94297;-64
2022/11/27 02:43:11;;;;;;;75.30;38.50;;;;;;;1.55;78.98;101752.66;101246;1298;139618;-63
2022/11/27 02:45:46;;;;;;;70.90;36.80;;;;;;;1.58;78.90;101753.27;101326;1304;107616;-64
2022/11/27 02:48:19;;;;;;;76.20;37.80;;;;;;;1.56;78.51;101756.71;101177;1285;140765;-63
2022/11/27 02:50:52;;;;;;;75.40;37.00;;;;;;;1.55;78.78;101754.03;101283;1284;108120;-65
2022/11/27 02:53:28;;;;;;;73.10;36.50;;;;;;;1.54;78.75;101755.27;101247;1285;140416;-64
2022/11/27 02:56:00;;;;;;;77.20;38.40;;;;;;;1.55;78.59;101759.84;101308;1299;94302;-64
2022/11/27 02:58:32;;;;;;;75.70;37.80;;;;;;;1.56;78.89;101757.41;101374;1306;106836;-64
2022/11/27 03:01:04;;;;;;;75.10;36.80;;;;;;;1.58;78.76;101753.27;101229;1281;141021;-65
2022/11/27 03:03:40;;;;;;;76.90;36.80;;;;;;;1.58;78.75;101750.98;101355;1278;107012;-64
2022/11/27 03:06:15;;;;;;;72.30;35.70;;;;;;;1.53;78.81;101752.75;101238;1281;139770;-64
2022/11/27 03:08:54;;;;;;;76.90;36.80;;;;;;;1.48;78.88;101753.83;101283;1299;95795;-64
2022/11/27 03:11:29;;;;;;;74.60;36.00;;;;;;;1.49;78.95;101747.06;101257;1278;140271;-63
2022/11/27 03:14:03;;;;;;;76.10;37.50;;;;;;;1.51;79.07;101751.48;101346;1284;97634;-64
2022/11/27 03:16:40;;;;;;;79.30;37.30;;;;;;;1.53;78.97;101750.14;101314;1282;107561;-63
2022/11/27 03:19:18;;;;;;;74.40;35.90;;;;;;;1.52;78.96;101754.64;101199;1298;140145;-64
2022/11/27 03:21:53;;;;;;;76.10;36.10;;;;;;;1.51;79.07;101751.48;101270;1292;94982;-64
2022/11/27 03:24:24;;;;;;;69.90;34.60;;;;;;;1.50;79.03;101748.98;101243;1305;140237;-63
2022/11/27 03:26:54;;;;;;;75.60;35.70;;;;;;;1.52;78.92;101750.64;101335;1282;98977;-64
2022/11/27 03:29:29;;;;;;;78.40;37.50;;;;;;;1.52;78.96;101750.65;101237;1299;140712;-63
2022/11/27 03:32:02;;;;;;;74.00;36.90;;;;;;;1.53;79.07;101752.23;101358;1281;94341;-64
2022/11/27 03:34:33;;;;;;;79.70;38.40;;;;;;;1.55;79.12;101751.24;101366;1282;95914;-64
2022/11/27 03:37:07;;;;;;;87.90;39.90;;;;;;;1.59;78.97;101749.30;101285;1282;139521;-64
2022/11/27 03:39:38;;;;;;;86.10;41.50;;;;;;;1.61;79.03;101748.47;101337;1282;98233;-65
2022/11/27 03:42:17;;;;;;;84.10;40.60;;;;;;;1.60;79.00;101749.49;101162;1289;140328;-64
2022/11/27 03:45:01;;;;;;;84.30;40.50;;;;;;;1.60;79.09;101752.11;101221;1284;94382;-64
2022/11/27 03:47:44;;;;;;;88.10;41.70;;;;;;;1.60;78.86;101748.44;101300;1285;140370;-63
2022/11/27 03:50:35;;;;;;;85.50;39.00;;;;;;;1.60;78.96;101752.80;101366;1299;106528;-64
2022/11/27 03:53:18;;;;;;;82.90;40.00;;;;;;;1.59;78.97;101748.06;101267;1278;98557;-64
2022/11/27 03:55:53;;;;;;;82.70;39.60;;;;;;;1.59;78.90;101748.58;101377;1285;108429;-63
2022/11/27 03:58:30;;;;;;;81.60;38.20;;;;;;;1.63;78.91;101750.29;101404;1292;95450;-64
2022/11/27 04:01:03;;;;;;;73.50;35.90;;;;;;;1.64;78.69;101751.90;101198;1278;140116;-64
2022/11/27 04:03:34;;;;;;;71.50;34.70;;;;;;;1.62;78.44;101751.63;101285;1298;107798;-64
2022/11/27 04:06:06;;;;;;;67.40;33.50;;;;;;;1.57;78.64;101750.29;101227;1282;140038;-64
2022/11/27 04:08:36;;;;;;;64.40;32.70;;;;;;;1.53;78.58;101751.00;101388;1284;106964;-63
2022/11/27 04:11:07;;;;;;;68.10;32.80;;;;;;;1.50;78.67;101751.63;101312;1298;94313;-64
2022/11/27 04:13:38;;;;;;;66.30;32.90;;;;;;;1.48;78.69;101747.89;101217;1299;139908;-65
2022/11/27 04:16:10;;;;;;;69.20;33.40;;;;;;;1.49;78.77;101748.44;101293;1286;107622;-65
2022/11/27 04:18:40;;;;;;;65.00;32.40;;;;;;;1.57;78.81;101747.30;101346;1282;140205;-66
2022/11/27 04:21:12;;;;;;;67.60;32.90;;;;;;;1.63;78.53;101747.14;101283;1299;108067;-64
2022/11/27 04:23:42;;;;;;;65.40;32.90;;;;;;;1.67;78.43;101749.36;101193;1285;141881;-64
2022/11/27 04:26:13;;;;;;;66.90;33.80;;;;;;;1.69;78.40;101754.16;101287;1305;94341;-65
2022/11/27 04:28:44;;;;;;;66.20;32.80;;;;;;;1.70;78.11;101752.78;101299;1286;107826;-65
2022/11/27 04:31:14;;;;;;;63.70;31.90;;;;;;;1.67;78.13;101752.54;101186;1281;142676;-63
2022/11/27 04:33:45;;;;;;;65.80;32.00;;;;;;;1.71;78.29;101754.55;101255;1281;108086;-63
2022/11/27 04:36:16;;;;;;;66.40;32.30;;;;;;;1.73;78.14;101748.33;101196;1281;140402;-64
2022/11/27 04:38:46;;;;;;;67.40;32.80;;;;;;;1.74;77.91;101745.55;101344;1281;95633;-64
2022/11/27 04:41:17;;;;;;;63.80;33.50;;;;;;;1.73;77.92;101745.34;101251;1281;107273;-65
2022/11/27 04:43:48;;;;;;;68.60;34.70;;;;;;;1.70;78.18;101747.71;101218;1298;98677;-65
2022/11/27 04:46:18;;;;;;;68.90;34.30;;;;;;;1.70;78.08;101748.08;101171;1275;105946;-64
2022/11/27 04:48:49;;;;;;;73.90;37.40;;;;;;;1.69;78.04;101744.36;101023;1281;139104;-65
2022/11/27 04:51:20;;;;;;;75.80;38.90;;;;;;;1.65;78.07;101743.00;101192;1277;95095;-67
2022/11/27 04:53:50;;;;;;;76.30;38.20;;;;;;;1.66;78.32;101742.17;101185;1306;140411;-64
2022/11/27 04:56:21;;;;;;;81.60;39.00;;;;;;;1.70;78.06;101745.77;101335;1282;98822;-63
2022/11/27 04:58:52;;;;;;;76.00;38.50;;;;;;;1.71;78.15;101744.25;101170;1292;107687;-64
2022/11/27 05:01:23;;;;;;;76.30;39.60;;;;;;;1.71;78.28;101744.06;101185;1288;141091;-64
2022/11/27 05:03:54;;;;;;;79.30;38.20;;;;;;;1.73;78.25;101745.33;101315;1278;94505;-64
2022/11/27 05:06:25;;;;;;;76.70;37.90;;;;;;;1.72;78.19;101747.23;101203;1303;140209;-63
2022/11/27 05:09:00;;;;;;;76.20;37.90;;;;;;;1.74;78.43;101748.70;101325;1297;98592;-64
2022/11/27 05:11:32;;;;;;;74.50;38.00;;;;;;;1.75;78.57;101743.85;101221;1281;139738;-63
2022/11/27 05:14:15;;;;;;;74.20;36.80;;;;;;;1.77;78.32;101744.77;101263;1285;95444;-65
2022/11/27 05:16:49;;;;;;;72.80;37.50;;;;;;;1.78;78.24;101744.10;101305;1285;94544;-64
2022/11/27 05:19:22;;;;;;;72.90;37.00;;;;;;;1.78;78.34;101739.56;101279;1284;140677;-64
2022/11/27 05:21:53;;;;;;;73.40;34.60;;;;;;;1.80;78.36;101736.63;101331;1293;98710;-63
2022/11/27 05:24:26;;;;;;;73.00;36.80;;;;;;;1.76;78.09;101741.94;101227;1286;138014;-64
2022/11/27 05:26:57;;;;;;;73.20;35.30;;;;;;;1.77;78.32;101734.46;101306;1307;94450;-63
2022/11/27 05:29:28;;;;;;;67.00;32.80;;;;;;;1.76;78.48;101734.59;101311;1283;140788;-63
2022/11/27 05:31:59;;;;;;;67.80;33.80;;;;;;;1.75;78.53;101734.39;101325;1281;107626;-63
2022/11/27 05:34:29;;;;;;;69.00;32.30;;;;;;;1.74;78.33;101733.65;101331;1283;98046;-65
2022/11/27 05:37:00;;;;;;;67.70;33.10;;;;;;;1.71;78.31;101735.83;101145;1292;139019;-64
2022/11/27 05:39:30;;;;;;;65.10;32.10;;;;;;;1.72;78.72;101733.58;101256;1285;94575;-64
2022/11/27 05:42:01;;;;;;;66.10;34.40;;;;;;;1.70;78.87;101730.89;101183;1285;139890;-64
2022/11/27 05:44:32;;;;;;;65.90;33.50;;;;;;;1.73;78.81;101732.59;101306;1281;107694;-63
2022/11/27 05:47:03;;;;;;;63.00;30.70;;;;;;;1.78;78.96;101735.88;101328;1281;99598;-63
2022/11/27 05:49:34;;;;;;;67.60;33.20;;;;;;;1.87;79.03;101737.02;101202;1284;140107;-64
2022/11/27 05:52:05;;;;;;;64.70;32.10;;;;;;;1.90;78.46;101734.65;101309;1290;94742;-64
2022/11/27 05:54:35;;;;;;;67.90;33.10;;;;;;;1.85;78.36;101731.71;101178;1285;140619;-65
2022/11/27 05:57:06;;;;;;;77.50;38.10;;;;;;;1.87;78.63;101731.95;101306;1299;107698;-65
2022/11/27 05:59:37;;;;;;;73.90;36.00;;;;;;;1.86;78.58;101728.75;100313;1284;1271168;-64
2022/11/27 06:02:07;;;;;;;75.10;37.40;;;;;;;1.86;78.48;101726.30;101285;1298;107098;-62
2022/11/27 06:04:38;;;;;;;71.70;34.10;;;;;;;1.83;78.29;101725.02;101275;1285;95645;-64
2022/11/27 06:07:09;;;;;;;72.20;34.40;;;;;;;1.83;78.82;101725.88;101102;1285;139562;-61
2022/11/27 06:09:40;;;;;;;74.40;36.30;;;;;;;1.86;78.53;101722.46;101264;1291;106641;-64
2022/11/27 06:12:11;;;;;;;75.80;35.90;;;;;;;1.85;78.91;101725.06;101140;1285;139592;-64
2022/11/27 06:14:42;;;;;;;77.50;37.90;;;;;;;1.85;78.70;101722.27;101233;1286;108733;-64
2022/11/27 06:17:15;;;;;;;78.80;37.10;;;;;;;1.85;78.72;101718.58;101291;1298;94534;-65
2022/11/27 06:19:46;;;;;;;75.20;36.30;;;;;;;1.86;78.73;101714.74;101146;1286;140442;-65
2022/11/27 06:22:16;;;;;;;77.80;37.50;;;;;;;1.88;78.99;101713.77;101268;1304;107562;-67
2022/11/27 06:24:47;;;;;;;79.50;37.80;;;;;;;1.86;78.74;101719.84;101191;1283;140253;-64
2022/11/27 06:27:18;;;;;;;81.30;38.20;;;;;;;1.85;79.00;101720.17;101320;1278;107120;-63
2022/11/27 06:29:48;;;;;;;74.40;36.70;;;;;;;1.89;78.71;101721.48;101183;1283;140860;-65
2022/11/27 06:32:19;;;;;;;75.50;36.70;;;;;;;1.87;78.84;101725.96;101276;1284;94918;-62
2022/11/27 06:34:50;;;;;;;76.60;37.20;;;;;;;1.82;78.87;101727.42;101307;1281;107325;-62
2022/11/27 06:37:20;;;;;;;67.70;35.10;;;;;;;1.80;79.16;101733.98;101161;1307;139795;-63
2022/11/27 06:39:51;;;;;;;71.10;35.90;;;;;;;1.78;79.09;101733.96;101248;1281;106726;-63
2022/11/27 06:42:22;;;;;;;61.80;31.50;;;;;;;1.81;79.31;101734.73;101174;1286;140356;-65
2022/11/27 06:44:53;;;;;;;58.90;30.70;;;;;;;1.85;79.01;101739.41;101279;1304;94275;-63
2022/11/27 06:47:23;;;;;;;57.80;31.20;;;;;;;1.90;79.26;101742.20;101263;1275;139143;-64
2022/11/27 06:49:54;;;;;;;56.50;29.60;;;;;;;1.97;79.08;101741.20;101374;1281;97971;-62
2022/11/27 06:52:25;;;;;;;57.80;30.40;;;;;;;2.04;78.81;101740.86;101180;1292;108257;-66
2022/11/27 06:54:55;;;;;;;60.50;31.20;;;;;;;2.09;78.63;101735.77;101155;1281;140011;-64
2022/11/27 06:57:26;;;;;;;56.30;30.00;;;;;;;2.09;78.23;101738.23;101352;1285;94530;-65
2022/11/27 06:59:57;;;;;;;59.70;31.60;;;;;;;2.12;78.52;101740.08;101171;1288;139295;-63
2022/11/27 07:02:28;;;;;;;58.40;29.70;;;;;;;2.19;78.55;101738.86;101284;1286;98616;-64
2022/11/27 07:04:59;;;;;;;57.30;29.50;;;;;;;2.26;78.20;101737.66;101346;1283;107670;-65
2022/11/27 07:07:30;;;;;;;56.60;29.20;;;;;;;2.31;77.81;101731.70;101148;1284;140192;-65
2022/11/27 07:10:01;;;;;;;56.00;29.60;;;;;;;2.30;77.51;101729.04;101207;1302;94320;-65
2022/11/27 07:12:31;;;;;;;56.20;31.50;;;;;;;2.28;77.64;101727.05;101222;1281;139721;-63
2022/11/27 07:15:02;;;;;;;55.80;29.70;;;;;;;2.37;77.98;101725.02;101289;1301;99354;-63
2022/11/27 07:17:34;;;;;;;57.50;29.80;;;;;;;2.34;77.21;101720.73;101243;1286;138737;-61
2022/11/27 07:20:08;;;;;;;58.80;30.00;;;;;;;2.26;77.42;101718.90;101315;1288;94820;-65
2022/11/27 07:22:39;;;;;;;57.40;32.40;;;;;;;2.27;77.80;101709.85;101281;1286;94317;-65
2022/11/27 07:25:10;;;;;;;57.70;31.50;;;;;;;2.31;77.75;101716.27;101167;1306;140700;-65
2022/11/27 07:27:41;;;;;;;56.50;28.90;;;;;;;2.33;77.91;101714.23;101402;1298;97779;-66
2022/11/27 07:30:13;;;;;;;56.60;28.00;;;;;;;2.33;77.43;101713.52;101157;1282;140363;-64
2022/11/27 07:32:44;;;;;;;56.60;30.40;;;;;;;2.33;77.96;101714.40;101367;1306;95494;-64
2022/11/27 07:35:14;;;;;;;61.40;32.70;;;;;;;2.43;77.88;101720.98;101341;1297;94458;-64
2022/11/27 07:37:45;;;;;;;58.30;29.60;;;;;;;2.49;77.72;101716.95;101239;1305;139618;-65
2022/11/27 07:40:17;;;;;;;59.10;30.20;;;;;;;2.46;77.21;101717.58;101305;1300;98557;-64
2022/11/27 07:42:47;;;;;;;62.50;31.60;;;;;;;2.42;77.35;101719.73;101177;1296;139601;-65
2022/11/27 07:45:20;;;;;;;67.30;35.00;;;;;;;2.42;77.48;101722.88;101270;1298;94601;-63
2022/11/27 07:47:51;;;;;;;68.80;36.70;;;;;;;2.40;77.72;101723.70;101209;1281;139261;-63
2022/11/27 07:50:22;;;;;;;64.30;33.60;;;;;;;2.42;77.58;101720.09;101262;1305;107586;-63
2022/11/27 07:52:52;;;;;;;67.60;34.90;;;;;;;2.45;78.04;101720.52;101308;1284;98600;-64
2022/11/27 07:55:23;;;;;;;64.10;33.40;;;;;;;2.48;77.72;101719.21;101174;1289;140229;-64
2022/11/27 07:57:54;;;;;;;68.20;34.30;;;;;;;2.49;77.80;101723.77;101324;1291;94360;-63
2022/11/27 08:00:25;;;;;;;73.40;36.30;;;;;;;2.50;77.66;101725.38;101169;1282;140356;-64
2022/11/27 08:02:55;;;;;;;71.20;36.00;;;;;;;2.45;77.93;101727.35;101296;1299;107164;-64
2022/11/27 08:05:26;;;;;;;67.50;34.90;;;;;;;2.42;77.90;101726.58;101081;1283;139809;-65
2022/11/27 08:08:00;;;;;;;66.30;33.60;;;;;;;2.41;78.04;101724.79;101324;1275;108060;-64
2022/11/27 08:10:30;;;;;;;70.00;36.10;;;;;;;2.41;77.91;101722.84;101267;1289;94413;-65
2022/11/27 08:13:01;;;;;;;71.90;36.10;;;;;;;2.37;78.07;101726.60;101154;1281;140923;-64
2022/11/27 08:15:32;;;;;;;72.00;36.60;;;;;;;2.38;78.29;101725.39;101315;1281;107559;-63
2022/11/27 08:18:03;;;;;;;71.80;35.80;;;;;;;2.40;78.42;101725.29;101221;1299;140537;-64
2022/11/27 08:20:33;;;;;;;68.00;35.10;;;;;;;2.38;78.33;101721.55;101317;1289;108009;-64
2022/11/27 08:23:04;;;;;;;69.00;35.10;;;;;;;2.39;78.40;101725.27;101328;1299;94667;-66
2022/11/27 08:25:34;;;;;;;68.00;34.60;;;;;;;2.41;78.30;101721.09;101242;1281;140164;-65
2022/11/27 08:28:06;;;;;;;68.10;35.00;;;;;;;2.42;78.32;101718.84;101306;1289;105643;-64
2022/11/27 08:30:36;;;;;;;69.10;35.00;;;;;;;2.43;78.64;101715.19;101231;1288;140855;-64
2022/11/27 08:33:09;;;;;;;68.70;35.00;;;;;;;2.46;78.54;101712.13;101267;1289;110166;-64
2022/11/27 08:35:40;;;;;;;67.30;33.70;;;;;;;2.44;78.57;101714.71;101242;1285;139872;-63
2022/11/27 08:38:11;;;;;;;69.00;35.20;;;;;;;2.48;78.56;101719.54;101367;1277;94489;-65
2022/11/27 08:40:42;;;;;;;67.80;34.30;;;;;;;2.49;78.62;101726.05;101365;1299;107502;-64
2022/11/27 08:43:12;;;;;;;68.60;33.70;;;;;;;2.48;78.51;101728.33;101189;1281;139823;-64
2022/11/27 08:45:43;;;;;;;62.80;32.20;;;;;;;2.48;78.69;101732.34;101289;1282;107631;-63
2022/11/27 08:48:14;;;;;;;69.00;34.80;;;;;;;2.53;78.83;101730.20;101223;1301;140010;-64
2022/11/27 08:50:45;;;;;;;66.30;35.70;;;;;;;2.58;78.68;101733.14;101330;1281;95353;-65
2022/11/27 08:53:16;;;;;;;64.30;33.30;;;;;;;2.65;78.86;101733.52;101308;1299;107531;-63
2022/11/27 08:55:48;;;;;;;65.00;33.50;;;;;;;2.71;78.56;101734.04;101392;1281;97940;-63
2022/11/27 08:58:18;;;;;;;62.90;33.50;;;;;;;2.76;78.41;101729.60;101382;1298;108404;-65
2022/11/27 09:00:49;;;;;;;65.10;33.60;;;;;;;2.77;78.18;101730.70;101206;1286;139849;-64
2022/11/27 09:03:20;;;;;;;67.70;34.80;;;;;;;2.79;78.26;101734.95;101254;1286;95795;-65
2022/11/27 09:05:50;;;;;;;67.60;34.90;;;;;;;2.81;78.36;101730.98;101255;1285;140257;-64
2022/11/27 09:08:21;;;;;;;68.30;35.00;;;;;;;2.87;78.22;101730.96;101303;1288;98630;-66
2022/11/27 09:10:52;;;;;;;68.30;34.50;;;;;;;2.93;77.99;101731.48;101107;1295;108342;-64
2022/11/27 09:13:22;;;;;;;62.90;33.40;;;;;;;3.00;78.27;101734.27;101120;1281;140628;-65
2022/11/27 09:15:53;;;;;;;116.00;64.60;;;;;;;3.10;78.04;101729.63;101277;1283;94392;-64
2022/11/27 09:18:24;;;;;;;70.30;36.20;;;;;;;3.14;77.80;101733.05;101161;1300;140274;-63
2022/11/27 09:21:00;;;;;;;67.30;34.70;;;;;;;3.14;77.55;101734.82;101231;1304;98916;-62
2022/11/27 09:23:31;;;;;;;65.80;34.40;;;;;;;3.13;77.65;101732.33;101186;1281;140732;-62
2022/11/27 09:26:04;;;;;;;67.50;34.30;;;;;;;3.14;77.59;101736.05;101303;1281;95285;-63
2022/11/27 09:28:37;;;;;;;68.70;36.10;;;;;;;3.16;77.62;101741.02;101220;1305;95853;-63
2022/11/27 09:31:09;;;;;;;66.90;35.40;;;;;;;3.22;77.68;101743.10;101168;1283;140271;-63
2022/11/27 09:33:41;;;;;;;68.40;35.80;;;;;;;3.21;77.50;101739.74;101243;1284;98204;-62
2022/11/27 09:36:14;;;;;;;70.70;34.80;;;;;;;3.26;77.63;101738.98;101094;1290;138348;-61
2022/11/27 09:38:45;;;;;;;66.70;34.70;;;;;;;3.32;77.66;101738.27;101251;1283;94760;-60
2022/11/27 09:41:39;;;;;;;68.40;36.60;;;;;;;3.39;77.87;101740.88;101369;1275;94726;-63
2022/11/27 09:44:22;;;;;;;68.50;35.00;;;;;;;3.44;77.64;101737.85;101378;1283;107147;-62
2022/11/27 09:46:55;;;;;;;64.00;33.90;;;;;;;3.52;77.55;101738.57;101313;1285;97416;-63
2022/11/27 09:49:31;;;;;;;66.10;34.70;;;;;;;3.58;77.16;101732.90;101097;1288;139706;-61
2022/11/27 09:52:07;;;;;;;65.80;35.50;;;;;;;3.56;76.97;101729.71;101152;1307;94800;-63
2022/11/27 09:54:43;;;;;;;65.10;35.10;;;;;;;3.51;76.90;101729.77;101057;1284;140184;-63
2022/11/27 09:57:27;;;;;;;70.60;37.10;;;;;;;3.48;76.84;101734.98;101218;1284;106266;-63
2022/11/27 10:00:02;;;;;;;70.10;36.30;;;;;;;3.51;76.94;101733.29;101154;1291;142903;-63
2022/11/27 10:02:35;;;;;;;68.50;36.40;;;;;;;3.55;76.95;101731.79;101204;1290;108052;-63
2022/11/27 10:05:14;;;;;;;71.30;38.70;;;;;;;3.58;76.93;101729.23;101077;1289;94845;-62
2022/11/27 10:08:03;;;;;;;65.80;36.60;;;;;;;3.63;76.84;101721.29;101215;1281;139513;-61
2022/11/27 10:10:44;;;;;;;67.10;38.10;;;;;;;3.64;76.86;101716.04;101258;1286;107082;-65
2022/11/27 10:13:33;;;;;;;68.50;38.20;;;;;;;3.71;77.03;101708.09;101295;1282;139677;-64
2022/11/27 10:16:09;;;;;;;70.60;37.70;;;;;;;3.77;76.82;101707.36;101270;1305;108171;-62
2022/11/27 10:18:45;;;;;;;69.50;38.30;;;;;;;3.88;76.70;101707.95;101097;1286;140524;-63
2022/11/27 10:21:24;;;;;;;66.30;37.20;;;;;;;3.92;76.51;101703.48;101243;1281;94743;-62
2022/11/27 10:24:01;;;;;;;71.40;39.20;;;;;;;4.00;76.25;101695.05;101128;1283;139969;-61
2022/11/27 10:26:38;;;;;;;65.20;37.60;;;;;;;4.10;75.95;101695.42;101025;1285;97995;-63
2022/11/27 10:29:25;;;;;;;65.30;37.60;;;;;;;4.15;75.65;101695.37;101010;1283;108039;-63
2022/11/27 10:32:00;;;;;;;66.30;37.20;;;;;;;4.22;75.54;101693.04;101160;1284;94300;-62
2022/11/27 10:34:38;;;;;;;69.90;37.10;;;;;;;4.26;75.32;101691.55;101066;1278;94304;-65
2022/11/27 10:37:18;;;;;;;67.60;36.50;;;;;;;4.30;75.17;101692.68;101028;1282;139566;-64
2022/11/27 10:39:53;;;;;;;70.00;39.00;;;;;;;4.31;74.98;101691.82;101085;1286;97964;-63
2022/11/27 10:42:32;;;;;;;70.90;40.80;;;;;;;4.35;75.14;101690.32;101038;1278;139528;-61
2022/11/27 10:45:06;;;;;;;68.70;38.40;;;;;;;4.38;75.08;101692.84;101244;1289;94527;-62
2022/11/27 10:47:40;;;;;;;63.60;36.50;;;;;;;4.38;75.10;101688.77;101012;1283;140583;-62
2022/11/27 10:50:15;;;;;;;62.80;35.80;;;;;;;4.38;75.08;101687.02;101034;1281;107658;-65
2022/11/27 10:52:53;;;;;;;60.50;34.90;;;;;;;4.43;75.19;101685.20;101161;1278;98054;-65
2022/11/27 10:55:36;;;;;;;67.50;39.70;;;;;;;4.48;75.13;101685.13;100743;1283;140237;-62
2022/11/27 10:58:22;;;;;;;61.10;35.10;;;;;;;4.55;75.05;101683.66;100543;1281;94842;-64
2022/11/27 11:01:03;;;;;;;62.30;35.80;;;;;;;4.58;74.88;101682.67;101150;1292;140169;-62
2022/11/27 11:03:35;;;;;;;59.80;33.90;;;;;;;4.58;74.77;101681.63;101344;1291;106678;-63
2022/11/27 11:06:08;;;;;;;61.50;35.80;;;;;;;4.55;74.99;101684.55;101146;1283;141967;-62
2022/11/27 11:09:03;;;;;;;58.50;34.10;;;;;;;4.57;74.96;101682.31;101196;1283;107736;-64
2022/11/27 11:11:34;;;;;;;61.50;35.80;;;;;;;4.64;75.14;101678.91;101076;1281;139899;-64
2022/11/27 11:14:15;;;;;;;69.80;39.80;;;;;;;4.68;75.04;101678.83;100922;1284;94280;-62
2022/11/27 11:16:46;;;;;;;58.50;32.90;;;;;;;4.71;74.64;101675.70;100769;1281;107591;-64
2022/11/27 11:19:29;;;;;;;53.90;32.40;;;;;;;4.65;74.56;101677.02;100725;1281;140198;-64
2022/11/27 11:22:12;;;;;;;56.50;33.20;;;;;;;4.62;74.82;101668.49;100811;1282;107695;-62
2022/11/27 11:24:48;;;;;;;56.10;32.50;;;;;;;4.61;74.63;101670.24;100786;1281;140579;-62
2022/11/27 11:27:21;;;;;;;56.50;31.10;;;;;;;4.62;75.03;101664.63;100930;1277;95203;-64
2022/11/27 11:29:53;;;;;;;55.30;32.10;;;;;;;4.62;74.94;101666.58;100862;1278;140435;-63
2022/11/27 11:32:27;;;;;;;59.60;33.90;;;;;;;4.63;75.05;101665.36;101174;1283;98038;-62